Time;durP1;ratioP1;P1;durP2;ratioP2;P2;SDS_P1;SDS_P2;PMS_P1;PMS_P2;Temp;Humidity;BMP_temperature;BMP_pressure;BME280_temperature;BME280_humidity;BME280_pressure;Samples;Min_cycle;Max_cycle;Signal;HPM_P1;HPM_P2
2022/05/12 00:01:58;;;;;;;0.05;0.05;;;;;;;;;;6231516;23;20465;-75
2022/05/12 00:04:24;;;;;;;0.00;0.00;;;;;;;;;;6227755;23;20361;-75
2022/05/12 00:06:50;;;;;;;0.00;0.00;;;;;;;;;;6231655;23;20635;-75
2022/05/12 00:09:17;;;;;;;0.00;0.00;;;;;;;;;;6227897;23;20466;-76
2022/05/12 00:11:43;;;;;;;0.00;0.00;;;;;;;;;;6229813;23;20216;-75
2022/05/12 00:14:10;;;;;;;0.00;0.00;;;;;;;;;;6229529;23;20350;-76
2022/05/12 00:16:38;;;;;;;0.00;0.00;;;;;;;;;;6228587;23;20221;-74
2022/05/12 00:19:04;;;;;;;0.00;0.00;;;;;;;;;;6230371;23;20523;-75
2022/05/12 00:21:30;;;;;;;0.05;0.05;;;;;;;;;;6227148;23;20342;-75
2022/05/12 00:24:00;;;;;;;0.10;0.10;;;;;;;;;;6231432;23;20186;-77
2022/05/12 00:26:26;;;;;;;0.00;0.00;;;;;;;;;;6226499;23;20263;-77
2022/05/12 00:28:53;;;;;;;0.00;0.00;;;;;;;;;;6232370;23;20173;-74
2022/05/12 00:31:19;;;;;;;0.10;0.10;;;;;;;;;;6224938;23;20222;-75
2022/05/12 00:33:47;;;;;;;0.08;0.08;;;;;;;;;;6233856;23;20167;-76
2022/05/12 00:36:13;;;;;;;0.00;0.00;;;;;;;;;;6223707;23;20513;-76
2022/05/12 00:38:39;;;;;;;0.03;0.03;;;;;;;;;;6235186;23;20202;-76
2022/05/12 00:41:06;;;;;;;0.00;0.00;;;;;;;;;;6222250;23;20216;-76
2022/05/12 00:43:35;;;;;;;0.00;0.00;;;;;;;;;;6236524;23;20258;-75
2022/05/12 00:46:02;;;;;;;0.10;0.10;;;;;;;;;;6221858;23;20292;-78
2022/05/12 00:48:28;;;;;;;0.00;0.00;;;;;;;;;;6237138;23;20181;-75
2022/05/12 00:50:56;;;;;;;0.03;0.03;;;;;;;;;;6219790;23;20211;-75
2022/05/12 00:53:23;;;;;;;0.00;0.00;;;;;;;;;;6238594;23;20476;-76
2022/05/12 00:55:51;;;;;;;0.10;0.10;;;;;;;;;;6219131;23;20262;-76
2022/05/12 00:58:18;;;;;;;0.00;0.00;;;;;;;;;;6239160;23;20207;-76
2022/05/12 01:00:45;;;;;;;0.00;0.00;;;;;;;;;;6218252;23;20218;-76
2022/05/12 01:03:12;;;;;;;0.00;0.00;;;;;;;;;;6240760;23;20244;-75
2022/05/12 01:05:39;;;;;;;0.00;0.00;;;;;;;;;;6217019;23;20274;-75
2022/05/12 01:08:09;;;;;;;0.00;0.00;;;;;;;;;;6242310;23;20228;-74
2022/05/12 01:10:35;;;;;;;0.00;0.00;;;;;;;;;;6218347;23;20213;-76
2022/05/12 01:13:02;;;;;;;0.10;0.10;;;;;;;;;;6244499;23;20183;-76
2022/05/12 01:15:28;;;;;;;0.00;0.00;;;;;;;;;;6216592;23;20248;-75
2022/05/12 01:18:05;;;;;;;0.00;0.00;;;;;;;;;;6245428;23;20203;-75
2022/05/12 01:20:33;;;;;;;0.03;0.03;;;;;;;;;;6217618;23;20255;-75
2022/05/12 01:23:00;;;;;;;0.00;0.00;;;;;;;;;;6244971;23;20243;-76
2022/05/12 01:25:29;;;;;;;0.00;0.00;;;;;;;;;;6216229;23;20220;-75
2022/05/12 01:27:56;;;;;;;0.00;0.00;;;;;;;;;;6245572;23;20170;-75
2022/05/12 01:30:23;;;;;;;0.00;0.00;;;;;;;;;;6215152;23;20203;-75
2022/05/12 01:32:50;;;;;;;0.00;0.00;;;;;;;;;;6246712;23;20465;-76
2022/05/12 01:35:17;;;;;;;0.00;0.00;;;;;;;;;;6214419;23;20207;-76
2022/05/12 01:37:45;;;;;;;0.10;0.10;;;;;;;;;;6247105;23;20169;-76
2022/05/12 01:40:13;;;;;;;0.00;0.00;;;;;;;;;;6212899;23;20287;-73
2022/05/12 01:42:40;;;;;;;0.00;0.00;;;;;;;;;;6248360;23;20335;-73
2022/05/12 01:45:08;;;;;;;0.00;0.00;;;;;;;;;;6212455;23;20369;-71
2022/05/12 01:47:34;;;;;;;0.00;0.00;;;;;;;;;;6249232;23;20378;-73
2022/05/12 01:50:00;;;;;;;0.00;0.00;;;;;;;;;;6226696;23;20183;-73
2022/05/12 01:52:26;;;;;;;0.00;0.00;;;;;;;;;;6235348;23;20280;-73
2022/05/12 01:54:53;;;;;;;0.03;0.03;;;;;;;;;;6226661;23;20209;-74
2022/05/12 01:57:19;;;;;;;0.00;0.00;;;;;;;;;;6235462;23;20523;-73
2022/05/12 01:59:47;;;;;;;0.00;0.00;;;;;;;;;;6226570;23;20513;-73
2022/05/12 02:02:14;;;;;;;0.00;0.00;;;;;;;;;;6235258;23;20536;-73
2022/05/12 02:04:41;;;;;;;0.05;0.05;;;;;;;;;;6225890;23;20233;-74
2022/05/12 02:07:07;;;;;;;0.00;0.00;;;;;;;;;;6235442;23;20524;-73
2022/05/12 02:09:35;;;;;;;0.10;0.10;;;;;;;;;;6226627;23;20178;-73
2022/05/12 02:12:01;;;;;;;0.00;0.00;;;;;;;;;;6234405;23;20212;-73
2022/05/12 02:14:28;;;;;;;0.00;0.00;;;;;;;;;;6226961;23;20474;-73
2022/05/12 02:16:55;;;;;;;0.05;0.05;;;;;;;;;;6232872;23;20212;-73
2022/05/12 02:19:21;;;;;;;0.10;0.10;;;;;;;;;;6228004;23;20297;-74
2022/05/12 02:21:48;;;;;;;0.00;0.00;;;;;;;;;;6231687;23;20258;-73
2022/05/12 02:24:14;;;;;;;0.00;0.00;;;;;;;;;;6229560;23;20227;-73
2022/05/12 02:26:40;;;;;;;0.10;0.10;;;;;;;;;;6230025;23;20517;-73
2022/05/12 02:29:06;;;;;;;0.00;0.00;;;;;;;;;;6230374;23;20180;-73
2022/05/12 02:31:33;;;;;;;0.10;0.10;;;;;;;;;;6228611;23;20226;-73
2022/05/12 02:34:01;;;;;;;0.10;0.10;;;;;;;;;;6232362;23;20183;-73
2022/05/12 02:36:27;;;;;;;0.08;0.08;;;;;;;;;;6227308;23;20230;-74
2022/05/12 02:38:53;;;;;;;0.00;0.00;;;;;;;;;;6233175;23;20207;-74
2022/05/12 02:41:20;;;;;;;0.10;0.10;;;;;;;;;;6225817;23;20272;-72
2022/05/12 02:43:46;;;;;;;0.10;0.10;;;;;;;;;;6234878;23;20182;-72
2022/05/12 02:46:13;;;;;;;0.00;0.00;;;;;;;;;;6224097;23;20234;-74
2022/05/12 02:48:41;;;;;;;0.08;0.08;;;;;;;;;;6235855;23;20189;-74
2022/05/12 02:51:09;;;;;;;0.00;0.00;;;;;;;;;;6223481;23;20213;-72
2022/05/12 02:53:35;;;;;;;0.10;0.10;;;;;;;;;;6237087;23;20535;-73
2022/05/12 02:56:02;;;;;;;0.70;0.70;;;;;;;;;;6222177;23;20218;-74
2022/05/12 02:58:29;;;;;;;0.10;0.10;;;;;;;;;;6237981;23;20390;-74
2022/05/12 03:00:56;;;;;;;0.10;0.10;;;;;;;;;;6220684;23;20470;-73
2022/05/12 03:03:22;;;;;;;0.00;0.00;;;;;;;;;;6239462;23;20183;-74
2022/05/12 03:05:49;;;;;;;0.00;0.00;;;;;;;;;;6219341;23;20211;-74
2022/05/12 03:08:17;;;;;;;0.10;0.10;;;;;;;;;;6240639;23;20182;-73
2022/05/12 03:10:43;;;;;;;0.03;0.03;;;;;;;;;;6218223;23;20395;-73
2022/05/12 03:13:09;;;;;;;0.10;0.10;;;;;;;;;;6241716;23;20180;-73
2022/05/12 03:15:36;;;;;;;0.10;0.10;;;;;;;;;;6216936;23;20599;-73
2022/05/12 03:18:02;;;;;;;0.08;0.08;;;;;;;;;;6243060;23;20459;-73
2022/05/12 03:20:31;;;;;;;0.10;0.10;;;;;;;;;;6214902;23;20268;-73
2022/05/12 03:22:58;;;;;;;0.00;0.00;;;;;;;;;;6244033;23;20222;-73
2022/05/12 03:25:25;;;;;;;0.10;0.10;;;;;;;;;;6214963;23;20273;-73
2022/05/12 03:27:52;;;;;;;0.00;0.00;;;;;;;;;;6244903;23;20181;-73
2022/05/12 03:30:19;;;;;;;0.10;0.10;;;;;;;;;;6213256;23;20176;-73
2022/05/12 03:32:45;;;;;;;0.10;0.10;;;;;;;;;;6245619;23;20191;-73
2022/05/12 03:35:12;;;;;;;0.00;0.00;;;;;;;;;;6212016;23;20178;-73
2022/05/12 03:37:39;;;;;;;0.00;0.00;;;;;;;;;;6246877;23;20176;-74
2022/05/12 03:40:06;;;;;;;0.10;0.10;;;;;;;;;;6217785;23;20210;-73
2022/05/12 03:42:33;;;;;;;0.10;0.10;;;;;;;;;;6248199;23;20172;-74
2022/05/12 03:44:59;;;;;;;0.00;0.00;;;;;;;;;;6224990;23;20422;-74
2022/05/12 03:47:27;;;;;;;0.08;0.08;;;;;;;;;;6234314;23;20219;-74
2022/05/12 03:49:54;;;;;;;0.10;0.10;;;;;;;;;;6225523;23;20353;-75
2022/05/12 03:52:20;;;;;;;0.03;0.03;;;;;;;;;;6234336;23;20218;-73
2022/05/12 03:54:47;;;;;;;0.10;0.10;;;;;;;;;;6225534;23;20181;-75
2022/05/12 03:57:14;;;;;;;0.03;0.03;;;;;;;;;;6234116;23;20255;-73
2022/05/12 03:59:43;;;;;;;0.00;0.00;;;;;;;;;;6224826;23;20261;-73
2022/05/12 04:02:10;;;;;;;0.00;0.00;;;;;;;;;;6233831;23;20221;-73
2022/05/12 04:04:37;;;;;;;0.00;0.00;;;;;;;;;;6225185;23;20343;-72
2022/05/12 04:07:03;;;;;;;0.00;0.00;;;;;;;;;;6231989;23;20211;-73
2022/05/12 04:09:30;;;;;;;0.03;0.03;;;;;;;;;;6227453;23;20234;-73
2022/05/12 04:11:56;;;;;;;0.00;0.00;;;;;;;;;;6232014;23;20606;-73
2022/05/12 04:14:22;;;;;;;0.10;0.10;;;;;;;;;;6227002;23;20183;-73
2022/05/12 04:16:50;;;;;;;0.00;0.00;;;;;;;;;;6230886;23;20542;-73
2022/05/12 04:19:16;;;;;;;0.05;0.05;;;;;;;;;;6228283;23;20227;-74
2022/05/12 04:21:42;;;;;;;0.10;0.10;;;;;;;;;;6229412;23;20212;-74
2022/05/12 04:24:09;;;;;;;0.10;0.10;;;;;;;;;;6229705;23;20223;-74
2022/05/12 04:26:37;;;;;;;0.10;0.10;;;;;;;;;;6228061;23;20211;-73
2022/05/12 04:29:03;;;;;;;0.10;0.10;;;;;;;;;;6230275;23;20242;-74
2022/05/12 04:31:30;;;;;;;0.00;0.00;;;;;;;;;;6226847;23;20220;-73
2022/05/12 04:36:41;;;;;;;0.10;0.10;;;;;;;;;;6229362;23;20306;-73
2022/05/12 04:39:08;;;;;;;0.00;0.00;;;;;;;;;;6229512;23;20204;-74
2022/05/12 04:41:34;;;;;;;0.10;0.10;;;;;;;;;;6227804;23;20221;-74
2022/05/12 04:44:01;;;;;;;0.00;0.00;;;;;;;;;;6230967;23;20187;-74
2022/05/12 04:46:27;;;;;;;0.00;0.00;;;;;;;;;;6226088;23;20246;-73
2022/05/12 04:48:54;;;;;;;0.00;0.00;;;;;;;;;;6231958;23;20480;-74
2022/05/12 04:51:22;;;;;;;0.32;0.32;;;;;;;;;;6224893;23;20532;-73
2022/05/12 04:53:48;;;;;;;0.00;0.00;;;;;;;;;;6233591;23;20184;-73
2022/05/12 04:56:15;;;;;;;0.10;0.10;;;;;;;;;;6223766;23;20548;-73
2022/05/12 04:58:41;;;;;;;0.05;0.05;;;;;;;;;;6234821;23;20405;-74
2022/05/12 05:01:07;;;;;;;0.00;0.00;;;;;;;;;;6222349;23;20258;-73
2022/05/12 05:03:34;;;;;;;0.10;0.10;;;;;;;;;;6235537;23;20397;-73
2022/05/12 05:06:00;;;;;;;0.00;0.00;;;;;;;;;;6221045;23;20222;-73
2022/05/12 05:08:28;;;;;;;0.00;0.00;;;;;;;;;;6237104;23;20230;-73
2022/05/12 05:10:54;;;;;;;0.00;0.00;;;;;;;;;;6219676;23;20214;-74
2022/05/12 05:13:21;;;;;;;0.25;0.25;;;;;;;;;;6238591;23;20222;-74
2022/05/12 05:15:47;;;;;;;0.10;0.10;;;;;;;;;;6218338;23;20213;-74
2022/05/12 05:18:16;;;;;;;0.00;0.00;;;;;;;;;;6239903;23;20188;-73
2022/05/12 05:20:43;;;;;;;0.08;0.08;;;;;;;;;;6217263;23;20217;-74
2022/05/12 05:23:10;;;;;;;0.00;0.00;;;;;;;;;;6240503;23;20275;-73
2022/05/12 05:25:38;;;;;;;0.10;0.10;;;;;;;;;;6215785;23;20211;-73
2022/05/12 05:28:05;;;;;;;0.10;0.10;;;;;;;;;;6241531;23;20187;-73
2022/05/12 05:30:33;;;;;;;0.10;0.10;;;;;;;;;;6214866;23;20258;-73
2022/05/12 05:33:00;;;;;;;0.10;0.10;;;;;;;;;;6242136;23;20202;-74
2022/05/12 05:35:26;;;;;;;0.10;0.10;;;;;;;;;;6213825;23;20266;-73
2022/05/12 05:37:53;;;;;;;0.03;0.03;;;;;;;;;;6243494;23;20169;-74
2022/05/12 05:40:20;;;;;;;0.10;0.10;;;;;;;;;;6212338;23;20521;-74
2022/05/12 05:42:48;;;;;;;0.08;0.08;;;;;;;;;;6244383;23;20467;-73
2022/05/12 05:45:17;;;;;;;0.00;0.00;;;;;;;;;;6211147;23;20506;-74
2022/05/12 05:47:45;;;;;;;0.10;0.10;;;;;;;;;;6245242;23;20168;-73
2022/05/12 05:50:12;;;;;;;0.00;0.00;;;;;;;;;;6210814;23;20172;-73
2022/05/12 05:55:23;;;;;;;0.10;0.10;;;;;;;;;;6214769;23;20176;-75
2022/05/12 05:57:50;;;;;;;0.10;0.10;;;;;;;;;;6246371;23;20204;-74
2022/05/12 06:00:17;;;;;;;0.15;0.15;;;;;;;;;;6213300;23;20219;-74
2022/05/12 06:02:44;;;;;;;0.10;0.10;;;;;;;;;;6247629;23;20179;-74
2022/05/12 06:05:10;;;;;;;0.00;0.00;;;;;;;;;;6212268;23;20180;-75
2022/05/12 06:07:37;;;;;;;0.10;0.10;;;;;;;;;;6248943;23;20171;-75
2022/05/12 06:10:04;;;;;;;0.10;0.10;;;;;;;;;;6226245;23;20176;-74
2022/05/12 06:12:30;;;;;;;0.03;0.03;;;;;;;;;;6209377;23;20195;-74
2022/05/12 06:14:59;;;;;;;0.10;0.10;;;;;;;;;;6226473;23;20367;-74
2022/05/12 06:17:26;;;;;;;0.10;0.10;;;;;;;;;;6235132;23;20238;-74
2022/05/12 06:19:52;;;;;;;0.10;0.10;;;;;;;;;;6225843;23;20262;-73
2022/05/12 06:22:19;;;;;;;0.10;0.10;;;;;;;;;;6234955;23;20211;-73
2022/05/12 06:24:47;;;;;;;0.00;0.00;;;;;;;;;;6226456;23;20191;-74
2022/05/12 06:27:13;;;;;;;0.20;0.20;;;;;;;;;;6235227;23;20441;-74
2022/05/12 06:29:41;;;;;;;0.10;0.10;;;;;;;;;;6226095;23;20298;-73
2022/05/12 06:32:09;;;;;;;0.10;0.10;;;;;;;;;;6234680;23;20230;-73
2022/05/12 06:34:36;;;;;;;0.10;0.10;;;;;;;;;;6225709;23;20187;-74
2022/05/12 06:37:03;;;;;;;0.10;0.10;;;;;;;;;;6234447;23;20214;-74
2022/05/12 06:39:30;;;;;;;0.10;0.10;;;;;;;;;;6226131;23;20528;-73
2022/05/12 06:41:56;;;;;;;0.10;0.10;;;;;;;;;;6233107;23;20211;-72
2022/05/12 06:44:22;;;;;;;0.10;0.10;;;;;;;;;;6227762;23;20185;-73
2022/05/12 06:46:49;;;;;;;0.10;0.10;;;;;;;;;;6231671;23;20273;-73
2022/05/12 06:49:17;;;;;;;0.10;0.10;;;;;;;;;;6228953;23;20311;-74
2022/05/12 06:51:45;;;;;;;0.10;0.10;;;;;;;;;;6230621;23;20213;-74
2022/05/12 06:54:11;;;;;;;0.10;0.10;;;;;;;;;;6229900;23;20368;-73
2022/05/12 06:56:37;;;;;;;0.03;0.03;;;;;;;;;;6229086;23;20215;-73
2022/05/12 06:59:03;;;;;;;0.10;0.10;;;;;;;;;;6231383;23;20181;-73
2022/05/12 07:01:30;;;;;;;0.00;0.00;;;;;;;;;;6227673;23;20211;-74
2022/05/12 07:03:57;;;;;;;0.05;0.05;;;;;;;;;;6232954;23;20219;-73
2022/05/12 07:06:24;;;;;;;0.03;0.03;;;;;;;;;;6225989;23;20306;-72
2022/05/12 07:08:51;;;;;;;0.03;0.03;;;;;;;;;;6233609;23;20184;-72
2022/05/12 07:11:17;;;;;;;0.10;0.10;;;;;;;;;;6224705;23;20247;-73
2022/05/12 07:13:43;;;;;;;0.00;0.00;;;;;;;;;;6235470;23;20514;-74
2022/05/12 07:16:09;;;;;;;0.10;0.10;;;;;;;;;;6223961;23;20542;-73
2022/05/12 07:18:36;;;;;;;0.10;0.10;;;;;;;;;;6236700;23;20186;-74
2022/05/12 07:26:36;;;;;;;0.10;0.10;;;;;;;;;;6228311;23;20276;-73
2022/05/12 07:29:02;;;;;;;0.00;0.00;;;;;;;;;;6231564;23;20397;-76
2022/05/12 07:31:29;;;;;;;0.00;0.00;;;;;;;;;;6227243;23;20242;-73
2022/05/12 07:33:57;;;;;;;0.00;0.00;;;;;;;;;;6232644;23;20180;-75
2022/05/12 07:36:25;;;;;;;0.05;0.05;;;;;;;;;;6226340;23;20438;-75
2022/05/12 07:38:53;;;;;;;0.10;0.10;;;;;;;;;;6233570;23;20192;-74
2022/05/12 07:41:20;;;;;;;0.10;0.10;;;;;;;;;;6225049;23;20291;-74
2022/05/12 07:43:46;;;;;;;0.00;0.00;;;;;;;;;;6234666;23;20186;-74
2022/05/12 07:46:15;;;;;;;0.05;0.05;;;;;;;;;;6224138;23;20211;-74
2022/05/12 07:48:41;;;;;;;0.00;0.00;;;;;;;;;;6235055;23;20233;-74
2022/05/12 07:51:08;;;;;;;0.00;0.00;;;;;;;;;;6223164;23;20454;-74
2022/05/12 07:53:34;;;;;;;0.10;0.10;;;;;;;;;;6236409;23;20166;-74
2022/05/12 07:56:03;;;;;;;0.00;0.00;;;;;;;;;;6221487;23;20211;-73
2022/05/12 07:58:30;;;;;;;0.03;0.03;;;;;;;;;;6237388;23;20184;-74
2022/05/12 08:00:57;;;;;;;0.08;0.08;;;;;;;;;;6220612;23;20416;-73
2022/05/12 08:03:23;;;;;;;0.05;0.05;;;;;;;;;;6238315;23;20356;-74
2022/05/12 08:05:50;;;;;;;0.10;0.10;;;;;;;;;;6219187;23;20270;-73
2022/05/12 08:08:16;;;;;;;0.10;0.10;;;;;;;;;;6239687;23;20170;-74
2022/05/12 08:10:43;;;;;;;0.10;0.10;;;;;;;;;;6217799;23;20211;-73
2022/05/12 08:13:16;;;;;;;0.00;0.00;;;;;;;;;;6241068;23;20187;-72
2022/05/12 08:15:42;;;;;;;0.10;0.10;;;;;;;;;;6216965;23;20212;-72
2022/05/12 08:18:08;;;;;;;0.10;0.10;;;;;;;;;;6242003;23;20181;-73
2022/05/12 08:20:35;;;;;;;0.10;0.10;;;;;;;;;;6216071;23;20271;-72
2022/05/12 08:23:01;;;;;;;0.00;0.00;;;;;;;;;;6242837;23;20248;-73
2022/05/12 08:25:29;;;;;;;0.10;0.10;;;;;;;;;;6214974;23;20224;-74
2022/05/12 08:27:55;;;;;;;0.10;0.10;;;;;;;;;;6244561;23;20242;-74
2022/05/12 08:30:23;;;;;;;0.10;0.10;;;;;;;;;;6213565;23;20203;-67
2022/05/12 08:32:50;;;;;;;0.10;0.10;;;;;;;;;;6245373;23;20406;-68
2022/05/12 08:35:18;;;;;;;0.00;0.00;;;;;;;;;;6212480;23;20180;-67
2022/05/12 08:37:44;;;;;;;0.10;0.10;;;;;;;;;;6246355;23;20170;-68
2022/05/12 08:40:17;;;;;;;0.05;0.05;;;;;;;;;;6211124;23;20572;-69
2022/05/12 08:42:45;;;;;;;0.10;0.10;;;;;;;;;;6247009;23;20342;-67
2022/05/12 08:45:13;;;;;;;0.10;0.10;;;;;;;;;;6224854;23;20204;-67
2022/05/12 08:47:43;;;;;;;0.00;0.00;;;;;;;;;;6234030;23;20217;-68
2022/05/12 08:50:21;;;;;;;0.20;0.20;;;;;;;;;;6210340;23;20487;-66
2022/05/12 08:52:52;;;;;;;0.10;0.10;;;;;;;;;;6246014;23;20398;-65
2022/05/12 08:55:20;;;;;;;0.10;0.10;;;;;;;;;;6213448;23;20191;-66
2022/05/12 08:57:50;;;;;;;0.10;0.10;;;;;;;;;;6245892;23;20215;-66
2022/05/12 09:00:20;;;;;;;0.10;0.10;;;;;;;;;;6216733;23;20188;-67
2022/05/12 09:02:55;;;;;;;0.00;0.00;;;;;;;;;;6247504;23;20174;-66
2022/05/12 09:05:24;;;;;;;0.10;0.10;;;;;;;;;;6211782;23;20210;-64
2022/05/12 09:07:54;;;;;;;0.10;0.10;;;;;;;;;;6246778;23;20178;-66
2022/05/12 09:10:31;;;;;;;0.10;0.10;;;;;;;;;;6211663;23;20186;-66
2022/05/12 09:13:00;;;;;;;0.03;0.03;;;;;;;;;;6245081;23;20177;-66
2022/05/12 09:15:27;;;;;;;0.10;0.10;;;;;;;;;;6212938;23;20212;-66
2022/05/12 09:17:56;;;;;;;0.00;0.00;;;;;;;;;;6245867;23;20308;-70
2022/05/12 09:20:23;;;;;;;0.05;0.05;;;;;;;;;;6213332;23;20209;-72
2022/05/12 09:22:49;;;;;;;0.10;0.10;;;;;;;;;;6245512;23;20182;-69
2022/05/12 09:25:28;;;;;;;0.10;0.10;;;;;;;;;;6212500;23;20181;-69
2022/05/12 09:27:58;;;;;;;0.00;0.00;;;;;;;;;;6243796;23;20168;-70
2022/05/12 09:30:31;;;;;;;0.00;0.00;;;;;;;;;;6215327;23;20435;-69
2022/05/12 09:33:00;;;;;;;0.00;0.00;;;;;;;;;;6245736;23;20202;-68
2022/05/12 09:35:27;;;;;;;0.08;0.08;;;;;;;;;;6216332;23;20245;-69
2022/05/12 09:37:54;;;;;;;0.00;0.00;;;;;;;;;;6246532;23;20194;-69
2022/05/12 09:40:23;;;;;;;0.08;0.08;;;;;;;;;;6214741;23;20267;-69
2022/05/12 09:42:50;;;;;;;0.03;0.03;;;;;;;;;;6246860;23;20161;-69
2022/05/12 09:45:21;;;;;;;0.08;0.08;;;;;;;;;;6214202;23;20185;-69
2022/05/12 09:47:48;;;;;;;0.10;0.10;;;;;;;;;;6247041;23;20171;-71
2022/05/12 09:50:21;;;;;;;0.10;0.10;;;;;;;;;;6213414;23;20183;-71
2022/05/12 09:52:57;;;;;;;0.00;0.00;;;;;;;;;;6248124;23;20171;-73
2022/05/12 09:55:27;;;;;;;0.00;0.00;;;;;;;;;;6215212;23;20201;-72
2022/05/12 09:57:55;;;;;;;0.00;0.00;;;;;;;;;;6245807;23;20188;-73
2022/05/12 10:00:32;;;;;;;0.00;0.00;;;;;;;;;;6214612;23;20493;-73
2022/05/12 10:09:01;;;;;;;0.00;0.00;;;;;;;;;;6207502;23;20236;-73
2022/05/12 10:11:31;;;;;;;0.00;0.00;;;;;;;;;;6228101;23;20281;-72
2022/05/12 10:14:01;;;;;;;0.00;0.00;;;;;;;;;;6233476;23;20187;-72
2022/05/12 10:16:30;;;;;;;0.00;0.00;;;;;;;;;;6228141;23;20213;-73
2022/05/12 10:18:59;;;;;;;0.00;0.00;;;;;;;;;;6233533;23;20171;-73
2022/05/12 10:21:28;;;;;;;0.00;0.00;;;;;;;;;;6227494;23;20486;-73
2022/05/12 10:24:01;;;;;;;0.00;0.00;;;;;;;;;;6233710;23;20184;-72
2022/05/12 10:26:32;;;;;;;0.10;0.10;;;;;;;;;;6227900;23;20408;-72
2022/05/12 10:29:02;;;;;;;0.00;0.00;;;;;;;;;;6233315;23;20202;-74
2022/05/12 10:31:35;;;;;;;0.00;0.00;;;;;;;;;;6228191;23;20422;-73
2022/05/12 10:34:06;;;;;;;0.10;0.10;;;;;;;;;;6232472;23;20183;-72
2022/05/12 10:36:41;;;;;;;0.05;0.05;;;;;;;;;;6228534;23;20220;-72
2022/05/12 10:39:12;;;;;;;0.00;0.00;;;;;;;;;;6232107;23;20234;-73
2022/05/12 10:41:40;;;;;;;0.00;0.00;;;;;;;;;;6229869;23;20273;-72
2022/05/12 10:44:14;;;;;;;0.00;0.00;;;;;;;;;;6231294;23;20408;-74
2022/05/12 10:46:47;;;;;;;0.00;0.00;;;;;;;;;;6230158;23;20273;-73
2022/05/12 10:49:18;;;;;;;0.00;0.00;;;;;;;;;;6229995;23;20390;-71
2022/05/12 10:51:49;;;;;;;0.00;0.00;;;;;;;;;;6231040;23;20536;-72
2022/05/12 10:54:22;;;;;;;0.00;0.00;;;;;;;;;;6229256;23;20194;-73
2022/05/12 10:56:53;;;;;;;0.10;0.10;;;;;;;;;;6231752;23;20214;-72
2022/05/12 10:59:25;;;;;;;0.00;0.00;;;;;;;;;;6228103;23;20189;-76
2022/05/12 11:01:54;;;;;;;0.00;0.00;;;;;;;;;;6232161;23;20214;-74
2022/05/12 11:04:22;;;;;;;0.00;0.00;;;;;;;;;;6228140;23;20183;-75
2022/05/12 11:06:53;;;;;;;0.00;0.00;;;;;;;;;;6231640;23;20211;-75
2022/05/12 11:09:22;;;;;;;0.00;0.00;;;;;;;;;;6228663;23;20188;-74
2022/05/12 11:11:50;;;;;;;0.05;0.05;;;;;;;;;;6231275;23;20210;-74
2022/05/12 11:14:18;;;;;;;0.10;0.10;;;;;;;;;;6228639;23;20190;-75
2022/05/12 11:16:47;;;;;;;0.00;0.00;;;;;;;;;;6230706;23;20215;-73
2022/05/12 11:19:16;;;;;;;0.00;0.00;;;;;;;;;;6229024;23;20181;-73
2022/05/12 11:21:46;;;;;;;0.10;0.10;;;;;;;;;;6229741;23;20210;-73
2022/05/12 11:24:19;;;;;;;0.00;0.00;;;;;;;;;;6229303;23;20274;-73
2022/05/12 11:26:50;;;;;;;0.10;0.10;;;;;;;;;;6230524;23;20273;-76
2022/05/12 11:32:13;;;;;;;0.10;0.10;;;;;;;;;;6234468;23;20458;-74
2022/05/12 11:34:39;;;;;;;0.10;0.10;;;;;;;;;;6225912;23;20394;-75
2022/05/12 11:37:20;;;;;;;0.00;0.00;;;;;;;;;;6234332;23;20218;-75
2022/05/12 11:39:54;;;;;;;0.00;0.00;;;;;;;;;;6224701;23;20239;-75
2022/05/12 11:42:21;;;;;;;0.00;0.00;;;;;;;;;;6234595;23;20350;-75
2022/05/12 11:44:57;;;;;;;0.08;0.08;;;;;;;;;;6225610;23;20206;-75
2022/05/12 11:47:40;;;;;;;0.00;0.00;;;;;;;;;;6234496;23;20233;-74
2022/05/12 11:50:18;;;;;;;0.00;0.00;;;;;;;;;;6210966;23;20176;-74
2022/05/12 11:52:51;;;;;;;0.00;0.00;;;;;;;;;;6246049;23;20165;-75
2022/05/12 11:55:31;;;;;;;0.00;0.00;;;;;;;;;;6213304;23;20386;-75
2022/05/12 11:58:00;;;;;;;0.00;0.00;;;;;;;;;;6244174;23;20191;-74
2022/05/12 12:00:45;;;;;;;0.00;0.00;;;;;;;;;;6213969;23;20443;-74
2022/05/12 12:03:30;;;;;;;0.00;0.00;;;;;;;;;;6242262;23;20219;-73
2022/05/12 12:05:58;;;;;;;0.00;0.00;;;;;;;;;;6220600;23;20233;-73
2022/05/12 12:08:43;;;;;;;0.00;0.00;;;;;;;;;;6238940;23;20174;-74
2022/05/12 12:11:30;;;;;;;0.00;0.00;;;;;;;;;;6221260;23;20213;-73
2022/05/12 12:13:59;;;;;;;0.00;0.00;;;;;;;;;;6225005;23;20378;-74
2022/05/12 12:16:26;;;;;;;0.00;0.00;;;;;;;;;;6226657;23;20407;-74
2022/05/12 12:19:04;;;;;;;0.00;0.00;;;;;;;;;;6233247;23;20182;-75
2022/05/12 12:21:49;;;;;;;0.00;0.00;;;;;;;;;;6226925;23;20261;-73
2022/05/12 12:24:26;;;;;;;0.00;0.00;;;;;;;;;;6228670;23;20186;-75
2022/05/12 12:26:54;;;;;;;0.00;0.00;;;;;;;;;;6231440;23;20307;-74
2022/05/12 12:29:39;;;;;;;0.00;0.00;;;;;;;;;;6227681;23;20179;-72
2022/05/12 12:32:19;;;;;;;0.00;0.00;;;;;;;;;;6234337;23;20211;-74
2022/05/12 12:34:48;;;;;;;0.05;0.05;;;;;;;;;;6224922;23;20240;-73
2022/05/12 12:37:37;;;;;;;0.00;0.00;;;;;;;;;;6234376;23;20277;-74
2022/05/12 12:40:25;;;;;;;0.10;0.10;;;;;;;;;;6224852;23;20212;-73
2022/05/12 12:42:52;;;;;;;0.00;0.00;;;;;;;;;;6224904;23;20245;-73
2022/05/12 12:45:21;;;;;;;0.00;0.00;;;;;;;;;;6211847;23;20177;-75
2022/05/12 12:47:50;;;;;;;0.00;0.00;;;;;;;;;;6246659;23;20170;-73
2022/05/12 12:50:29;;;;;;;0.00;0.00;;;;;;;;;;6212568;23;20182;-73
2022/05/12 12:52:58;;;;;;;0.05;0.05;;;;;;;;;;6244456;23;20356;-73
2022/05/12 12:58:13;;;;;;;0.00;0.00;;;;;;;;;;6241637;23;20198;-74
2022/05/12 13:00:45;;;;;;;0.00;0.00;;;;;;;;;;6217847;23;20346;-75
2022/05/12 13:03:19;;;;;;;0.00;0.00;;;;;;;;;;6241310;23;20388;-75
2022/05/12 13:05:46;;;;;;;0.00;0.00;;;;;;;;;;6220795;23;20280;-73
2022/05/12 13:08:21;;;;;;;0.00;0.00;;;;;;;;;;6242867;23;20412;-72
2022/05/12 13:10:51;;;;;;;0.00;0.00;;;;;;;;;;6221091;23;20363;-77
2022/05/12 13:13:18;;;;;;;0.00;0.00;;;;;;;;;;6243704;23;20229;-76
2022/05/12 13:15:54;;;;;;;0.00;0.00;;;;;;;;;;6220836;23;20210;-76
2022/05/12 13:18:33;;;;;;;0.00;0.00;;;;;;;;;;6242271;23;20283;-77
2022/05/12 13:21:01;;;;;;;0.00;0.00;;;;;;;;;;6223355;23;20433;-77
2022/05/12 13:23:29;;;;;;;0.00;0.00;;;;;;;;;;6240933;23;20385;-76
2022/05/12 13:25:57;;;;;;;0.10;0.10;;;;;;;;;;6222860;23;20214;-78
2022/05/12 13:28:25;;;;;;;0.00;0.00;;;;;;;;;;6240616;23;20188;-81
2022/05/12 13:30:54;;;;;;;0.00;0.00;;;;;;;;;;6221817;23;20221;-79
2022/05/12 13:33:22;;;;;;;0.10;0.10;;;;;;;;;;6242548;23;20370;-80
2022/05/12 13:35:55;;;;;;;0.00;0.00;;;;;;;;;;6222252;23;20227;-79
2022/05/12 13:38:22;;;;;;;0.10;0.10;;;;;;;;;;6241151;23;20172;-82
2022/05/12 13:40:50;;;;;;;0.10;0.10;;;;;;;;;;6191540;23;20256;-79
2022/05/12 13:43:19;;;;;;;0.00;0.00;;;;;;;;;;6211766;23;20194;-79
2022/05/12 13:45:47;;;;;;;0.00;0.00;;;;;;;;;;6191574;23;20463;-80
2022/05/12 13:48:18;;;;;;;0.10;0.10;;;;;;;;;;6212255;23;20189;-78
2022/05/12 13:50:45;;;;;;;0.10;0.10;;;;;;;;;;6190307;23;20491;-78
2022/05/12 13:53:11;;;;;;;0.00;0.00;;;;;;;;;;6212535;23;20180;-79
2022/05/12 13:55:38;;;;;;;0.00;0.00;;;;;;;;;;6189450;23;20215;-76
2022/05/12 13:58:12;;;;;;;0.00;0.00;;;;;;;;;;6217376;23;20178;-69
2022/05/12 14:00:40;;;;;;;0.10;0.10;;;;;;;;;;6188227;23;20514;-75
2022/05/12 14:03:20;;;;;;;0.10;0.10;;;;;;;;;;6218700;23;20202;-76
2022/05/12 14:05:47;;;;;;;0.00;0.00;;;;;;;;;;6190759;23;20417;-75
2022/05/12 14:08:16;;;;;;;0.10;0.10;;;;;;;;;;6217445;23;20180;-76
2022/05/12 14:10:46;;;;;;;0.00;0.00;;;;;;;;;;6193162;23;20241;-73
2022/05/12 14:21:30;;;;;;;0.00;0.00;;;;;;;;;;6198244;23;20268;-73
2022/05/12 14:23:56;;;;;;;0.00;0.00;;;;;;;;;;6203062;23;20184;-73
2022/05/12 14:26:22;;;;;;;0.00;0.00;;;;;;;;;;6196639;23;20212;-74
2022/05/12 14:28:49;;;;;;;0.00;0.00;;;;;;;;;;6204837;23;20191;-75
2022/05/12 14:31:16;;;;;;;0.00;0.00;;;;;;;;;;6195680;23;20220;-74
2022/05/12 14:33:43;;;;;;;0.00;0.00;;;;;;;;;;6205637;23;20178;-75
2022/05/12 14:36:10;;;;;;;0.10;0.10;;;;;;;;;;6194745;23;20215;-75
2022/05/12 14:38:36;;;;;;;0.00;0.00;;;;;;;;;;6206538;23;20172;-75
2022/05/12 14:41:02;;;;;;;0.00;0.00;;;;;;;;;;6192778;23;20219;-73
2022/05/12 14:43:29;;;;;;;0.00;0.00;;;;;;;;;;6208323;23;20410;-74
2022/05/12 14:45:55;;;;;;;0.00;0.00;;;;;;;;;;6191643;23;20214;-73
2022/05/12 14:48:22;;;;;;;0.00;0.00;;;;;;;;;;6209379;23;20182;-73
2022/05/12 14:50:49;;;;;;;0.00;0.00;;;;;;;;;;6189800;23;20226;-74
2022/05/12 14:53:16;;;;;;;0.00;0.00;;;;;;;;;;6210594;23;20221;-72
2022/05/12 14:55:43;;;;;;;0.00;0.00;;;;;;;;;;6188549;23;20209;-72
2022/05/12 14:58:10;;;;;;;0.00;0.00;;;;;;;;;;6211679;23;20501;-72
2022/05/12 15:00:37;;;;;;;0.00;0.00;;;;;;;;;;6187344;23;20213;-73
2022/05/12 15:03:04;;;;;;;0.10;0.10;;;;;;;;;;6213189;23;20240;-75
2022/05/12 15:05:30;;;;;;;0.00;0.00;;;;;;;;;;6186984;23;20290;-76
2022/05/12 15:08:01;;;;;;;0.10;0.10;;;;;;;;;;6214717;23;20181;-75
2022/05/12 15:10:27;;;;;;;0.00;0.00;;;;;;;;;;6184912;23;20251;-70
2022/05/12 15:12:54;;;;;;;0.10;0.10;;;;;;;;;;6214279;23;20194;-70
2022/05/12 15:15:20;;;;;;;0.00;0.00;;;;;;;;;;6184395;23;20184;-76
2022/05/12 15:17:48;;;;;;;0.00;0.00;;;;;;;;;;6216552;23;20200;-73
2022/05/12 15:20:16;;;;;;;0.10;0.10;;;;;;;;;;6183231;23;20223;-72
2022/05/12 15:22:42;;;;;;;0.00;0.00;;;;;;;;;;6217056;23;20519;-72